sensor_id;sensor_type;location;lat;lon;timestamp;temperature;humidity
10875;DHT22;5490;52.200;8.786;2022-07-04T00:01:24;18.20;99.90
10875;DHT22;5490;52.200;8.786;2022-07-04T00:03:52;18.20;99.90
10875;DHT22;5490;52.200;8.786;2022-07-04T00:06:19;18.20;99.90
10875;DHT22;5490;52.200;8.786;2022-07-04T00:08:46;18.10;99.90
10875;DHT22;5490;52.200;8.786;2022-07-04T00:11:18;18.10;99.90
10875;DHT22;5490;52.200;8.786;2022-07-04T00:13:59;18.00;99.90
10875;DHT22;5490;52.200;8.786;2022-07-04T00:16:47;18.10;99.90
10875;DHT22;5490;52.200;8.786;2022-07-04T00:19:15;18.00;99.90
10875;DHT22;5490;52.200;8.786;2022-07-04T00:21:43;17.90;99.90
10875;DHT22;5490;52.200;8.786;2022-07-04T00:24:14;17.90;99.90
10875;DHT22;5490;52.200;8.786;2022-07-04T00:26:44;17.90;99.90
10875;DHT22;5490;52.200;8.786;2022-07-04T00:29:11;17.90;99.90
10875;DHT22;5490;52.200;8.786;2022-07-04T00:31:42;17.90;99.90
10875;DHT22;5490;52.200;8.786;2022-07-04T00:34:16;17.80;99.90
10875;DHT22;5490;52.200;8.786;2022-07-04T00:37:27;17.80;99.90
10875;DHT22;5490;52.200;8.786;2022-07-04T00:39:59;17.80;99.90
10875;DHT22;5490;52.200;8.786;2022-07-04T00:42:25;17.70;99.90
10875;DHT22;5490;52.200;8.786;2022-07-04T00:44:53;17.70;99.90
10875;DHT22;5490;52.200;8.786;2022-07-04T00:50:45;17.60;99.90
10875;DHT22;5490;52.200;8.786;2022-07-04T00:53:14;17.60;99.90
10875;DHT22;5490;52.200;8.786;2022-07-04T00:55:57;17.60;99.90
10875;DHT22;5490;52.200;8.786;2022-07-04T00:58:34;17.60;99.90
10875;DHT22;5490;52.200;8.786;2022-07-04T01:01:31;17.60;99.90
10875;DHT22;5490;52.200;8.786;2022-07-04T01:04:02;17.50;99.90
10875;DHT22;5490;52.200;8.786;2022-07-04T01:09:57;17.50;99.90
10875;DHT22;5490;52.200;8.786;2022-07-04T01:15:57;17.40;99.90
10875;DHT22;5490;52.200;8.786;2022-07-04T01:18:42;17.40;99.90
10875;DHT22;5490;52.200;8.786;2022-07-04T01:21:59;17.40;99.90
10875;DHT22;5490;52.200;8.786;2022-07-04T01:24:31;17.40;99.90
10875;DHT22;5490;52.200;8.786;2022-07-04T01:27:08;17.30;99.90
10875;DHT22;5490;52.200;8.786;2022-07-04T01:30:24;17.30;99.90
10875;DHT22;5490;52.200;8.786;2022-07-04T01:32:51;17.30;99.90
10875;DHT22;5490;52.200;8.786;2022-07-04T01:35:18;17.30;99.90
10875;DHT22;5490;52.200;8.786;2022-07-04T01:38:42;17.20;99.90
10875;DHT22;5490;52.200;8.786;2022-07-04T01:41:11;17.20;99.90
10875;DHT22;5490;52.200;8.786;2022-07-04T01:43:38;17.20;99.90
10875;DHT22;5490;52.200;8.786;2022-07-04T01:46:06;17.10;99.90
10875;DHT22;5490;52.200;8.786;2022-07-04T01:48:47;17.10;99.90
10875;DHT22;5490;52.200;8.786;2022-07-04T01:52:08;17.10;99.90
10875;DHT22;5490;52.200;8.786;2022-07-04T01:55:22;17.00;99.90
10875;DHT22;5490;52.200;8.786;2022-07-04T01:58:01;17.00;99.90
10875;DHT22;5490;52.200;8.786;2022-07-04T02:00:28;17.10;99.90
10875;DHT22;5490;52.200;8.786;2022-07-04T02:06:28;16.90;99.90
10875;DHT22;5490;52.200;8.786;2022-07-04T02:08:56;16.90;99.90
10875;DHT22;5490;52.200;8.786;2022-07-04T02:14:47;16.90;99.90
10875;DHT22;5490;52.200;8.786;2022-07-04T02:17:16;16.90;99.90
10875;DHT22;5490;52.200;8.786;2022-07-04T02:19:44;16.80;99.90
10875;DHT22;5490;52.200;8.786;2022-07-04T02:22:12;16.80;99.90
10875;DHT22;5490;52.200;8.786;2022-07-04T02:24:54;16.80;99.90
10875;DHT22;5490;52.200;8.786;2022-07-04T02:27:30;16.80;99.90
10875;DHT22;5490;52.200;8.786;2022-07-04T02:29:58;16.70;99.90
10875;DHT22;5490;52.200;8.786;2022-07-04T02:32:25;16.80;99.90
10875;DHT22;5490;52.200;8.786;2022-07-04T02:34:52;16.70;99.90
10875;DHT22;5490;52.200;8.786;2022-07-04T02:37:32;16.70;99.90
10875;DHT22;5490;52.200;8.786;2022-07-04T02:40:10;16.60;99.90
10875;DHT22;5490;52.200;8.786;2022-07-04T02:42:55;16.60;99.90
10875;DHT22;5490;52.200;8.786;2022-07-04T02:45:45;16.60;99.90
10875;DHT22;5490;52.200;8.786;2022-07-04T02:48:19;16.60;99.90
10875;DHT22;5490;52.200;8.786;2022-07-04T02:50:46;16.60;99.90
10875;DHT22;5490;52.200;8.786;2022-07-04T02:53:52;16.50;99.90
10875;DHT22;5490;52.200;8.786;2022-07-04T02:56:19;16.50;99.90
10875;DHT22;5490;52.200;8.786;2022-07-04T02:58:48;16.50;99.90
10875;DHT22;5490;52.200;8.786;2022-07-04T03:01:42;16.40;99.90
10875;DHT22;5490;52.200;8.786;2022-07-04T03:04:09;16.50;99.90
10875;DHT22;5490;52.200;8.786;2022-07-04T03:06:38;16.40;99.90
10875;DHT22;5490;52.200;8.786;2022-07-04T03:09:29;16.40;99.90
10875;DHT22;5490;52.200;8.786;2022-07-04T03:12:14;16.40;99.90
10875;DHT22;5490;52.200;8.786;2022-07-04T03:14:46;16.40;99.90
10875;DHT22;5490;52.200;8.786;2022-07-04T03:17:13;16.40;99.90
10875;DHT22;5490;52.200;8.786;2022-07-04T03:19:47;16.40;99.90
10875;DHT22;5490;52.200;8.786;2022-07-04T03:22:16;16.40;99.90
10875;DHT22;5490;52.200;8.786;2022-07-04T03:39:00;16.40;99.90
10875;DHT22;5490;52.200;8.786;2022-07-04T03:41:29;16.30;99.90
10875;DHT22;5490;52.200;8.786;2022-07-04T03:43:56;16.30;99.90
10875;DHT22;5490;52.200;8.786;2022-07-04T03:46:23;16.40;99.90
10875;DHT22;5490;52.200;8.786;2022-07-04T03:48:58;16.40;99.90
10875;DHT22;5490;52.200;8.786;2022-07-04T03:51:42;16.40;99.90
10875;DHT22;5490;52.200;8.786;2022-07-04T03:54:41;16.40;99.90
10875;DHT22;5490;52.200;8.786;2022-07-04T03:57:12;16.50;99.90
10875;DHT22;5490;52.200;8.786;2022-07-04T04:00:04;16.60;99.90
10875;DHT22;5490;52.200;8.786;2022-07-04T04:03:13;16.60;99.90
10875;DHT22;5490;52.200;8.786;2022-07-04T04:06:09;16.60;99.90
10875;DHT22;5490;52.200;8.786;2022-07-04T04:12:09;16.80;99.90
10875;DHT22;5490;52.200;8.786;2022-07-04T04:14:52;16.90;99.90
10875;DHT22;5490;52.200;8.786;2022-07-04T04:17:20;16.90;99.90
10875;DHT22;5490;52.200;8.786;2022-07-04T04:20:14;16.90;99.90
10875;DHT22;5490;52.200;8.786;2022-07-04T04:23:07;16.90;99.90
10875;DHT22;5490;52.200;8.786;2022-07-04T04:25:38;16.90;99.90
10875;DHT22;5490;52.200;8.786;2022-07-04T04:28:21;17.00;99.90
10875;DHT22;5490;52.200;8.786;2022-07-04T04:31:01;17.00;99.90
10875;DHT22;5490;52.200;8.786;2022-07-04T04:33:56;17.00;99.90
10875;DHT22;5490;52.200;8.786;2022-07-04T04:36:38;17.00;99.90
10875;DHT22;5490;52.200;8.786;2022-07-04T04:39:11;17.10;99.90
10875;DHT22;5490;52.200;8.786;2022-07-04T04:41:39;17.10;99.90
10875;DHT22;5490;52.200;8.786;2022-07-04T04:47:32;17.30;99.90
10875;DHT22;5490;52.200;8.786;2022-07-04T04:50:04;17.40;99.90
10875;DHT22;5490;52.200;8.786;2022-07-04T04:55:48;17.40;99.90
10875;DHT22;5490;52.200;8.786;2022-07-04T04:58:19;17.60;99.90
10875;DHT22;5490;52.200;8.786;2022-07-04T05:00:47;17.70;99.90
10875;DHT22;5490;52.200;8.786;2022-07-04T05:03:38;17.80;99.90
10875;DHT22;5490;52.200;8.786;2022-07-04T05:09:57;18.00;99.90
10875;DHT22;5490;52.200;8.786;2022-07-04T05:12:38;18.00;99.90
10875;DHT22;5490;52.200;8.786;2022-07-04T05:15:11;18.10;99.90
10875;DHT22;5490;52.200;8.786;2022-07-04T05:17:42;18.20;99.90
10875;DHT22;5490;52.200;8.786;2022-07-04T05:21:03;18.20;99.90
10875;DHT22;5490;52.200;8.786;2022-07-04T05:23:32;18.20;99.90
10875;DHT22;5490;52.200;8.786;2022-07-04T05:25:59;18.20;99.90
10875;DHT22;5490;52.200;8.786;2022-07-04T05:28:26;18.30;99.90
10875;DHT22;5490;52.200;8.786;2022-07-04T05:31:10;18.40;99.90
10875;DHT22;5490;52.200;8.786;2022-07-04T05:36:51;20.00;99.90
10875;DHT22;5490;52.200;8.786;2022-07-04T05:39:21;21.10;99.90
10875;DHT22;5490;52.200;8.786;2022-07-04T05:41:49;22.00;99.90
10875;DHT22;5490;52.200;8.786;2022-07-04T05:44:31;22.90;99.90
10875;DHT22;5490;52.200;8.786;2022-07-04T05:47:04;23.70;99.90
10875;DHT22;5490;52.200;8.786;2022-07-04T05:49:57;24.30;99.90
10875;DHT22;5490;52.200;8.786;2022-07-04T05:58:31;25.50;99.90
10875;DHT22;5490;52.200;8.786;2022-07-04T06:01:15;25.50;99.90
10875;DHT22;5490;52.200;8.786;2022-07-04T06:04:25;25.40;99.90
10875;DHT22;5490;52.200;8.786;2022-07-04T06:06:52;25.20;99.90
10875;DHT22;5490;52.200;8.786;2022-07-04T06:12:43;25.10;99.90
10875;DHT22;5490;52.200;8.786;2022-07-04T06:15:12;25.10;99.90
10875;DHT22;5490;52.200;8.786;2022-07-04T06:17:39;25.40;99.90
10875;DHT22;5490;52.200;8.786;2022-07-04T06:20:21;25.70;99.90
10875;DHT22;5490;52.200;8.786;2022-07-04T06:23:30;26.10;99.90
10875;DHT22;5490;52.200;8.786;2022-07-04T06:25:57;27.00;99.90
10875;DHT22;5490;52.200;8.786;2022-07-04T06:28:26;27.70;99.90
10875;DHT22;5490;52.200;8.786;2022-07-04T06:30:53;28.50;99.90
10875;DHT22;5490;52.200;8.786;2022-07-04T06:33:57;28.80;99.80
10875;DHT22;5490;52.200;8.786;2022-07-04T06:36:47;29.60;98.80
10875;DHT22;5490;52.200;8.786;2022-07-04T06:39:17;30.10;96.00
10875;DHT22;5490;52.200;8.786;2022-07-04T06:41:49;30.50;94.90
10875;DHT22;5490;52.200;8.786;2022-07-04T06:44:26;30.60;92.50
10875;DHT22;5490;52.200;8.786;2022-07-04T06:46:52;31.00;92.30
10875;DHT22;5490;52.200;8.786;2022-07-04T06:49:19;31.80;91.60
10875;DHT22;5490;52.200;8.786;2022-07-04T06:51:46;32.70;90.50
10875;DHT22;5490;52.200;8.786;2022-07-04T06:54:12;33.40;87.00
10875;DHT22;5490;52.200;8.786;2022-07-04T06:56:41;34.10;84.90
10875;DHT22;5490;52.200;8.786;2022-07-04T06:59:08;34.90;80.10
10875;DHT22;5490;52.200;8.786;2022-07-04T07:01:36;35.60;77.10
10875;DHT22;5490;52.200;8.786;2022-07-04T07:04:03;36.30;72.30
10875;DHT22;5490;52.200;8.786;2022-07-04T07:06:29;36.30;68.20
10875;DHT22;5490;52.200;8.786;2022-07-04T07:08:56;36.00;66.30
10875;DHT22;5490;52.200;8.786;2022-07-04T07:11:23;35.40;66.20
10875;DHT22;5490;52.200;8.786;2022-07-04T07:13:51;35.40;67.90
10875;DHT22;5490;52.200;8.786;2022-07-04T07:16:18;35.60;65.70
10875;DHT22;5490;52.200;8.786;2022-07-04T07:18:49;36.10;66.20
10875;DHT22;5490;52.200;8.786;2022-07-04T07:21:16;36.80;63.90
10875;DHT22;5490;52.200;8.786;2022-07-04T07:23:59;36.90;60.40
10875;DHT22;5490;52.200;8.786;2022-07-04T07:26:28;37.00;59.80
10875;DHT22;5490;52.200;8.786;2022-07-04T07:28:55;37.10;59.40
10875;DHT22;5490;52.200;8.786;2022-07-04T07:31:22;37.40;58.50
10875;DHT22;5490;52.200;8.786;2022-07-04T07:34:15;37.80;58.30
10875;DHT22;5490;52.200;8.786;2022-07-04T07:36:56;38.60;57.50
10875;DHT22;5490;52.200;8.786;2022-07-04T07:39:22;39.10;55.40
10875;DHT22;5490;52.200;8.786;2022-07-04T07:41:49;39.10;54.80
10875;DHT22;5490;52.200;8.786;2022-07-04T07:44:16;39.40;55.00
10875;DHT22;5490;52.200;8.786;2022-07-04T07:46:44;39.70;54.20
10875;DHT22;5490;52.200;8.786;2022-07-04T07:49:12;40.00;52.90
10875;DHT22;5490;52.200;8.786;2022-07-04T07:51:50;40.20;52.80
10875;DHT22;5490;52.200;8.786;2022-07-04T07:54:17;40.30;52.00
10875;DHT22;5490;52.200;8.786;2022-07-04T07:56:43;40.70;50.80
10875;DHT22;5490;52.200;8.786;2022-07-04T07:59:11;40.80;50.00
10875;DHT22;5490;52.200;8.786;2022-07-04T08:01:37;40.20;48.50
10875;DHT22;5490;52.200;8.786;2022-07-04T08:04:04;39.50;48.70
10875;DHT22;5490;52.200;8.786;2022-07-04T08:06:53;39.60;49.10
10875;DHT22;5490;52.200;8.786;2022-07-04T08:09:23;39.00;49.20
10875;DHT22;5490;52.200;8.786;2022-07-04T08:11:50;38.40;50.10
10875;DHT22;5490;52.200;8.786;2022-07-04T08:14:17;38.00;49.50
10875;DHT22;5490;52.200;8.786;2022-07-04T08:16:44;37.90;49.50
10875;DHT22;5490;52.200;8.786;2022-07-04T08:19:11;38.20;50.00
10875;DHT22;5490;52.200;8.786;2022-07-04T08:21:38;37.80;49.50
10875;DHT22;5490;52.200;8.786;2022-07-04T08:24:06;38.60;50.00
10875;DHT22;5490;52.200;8.786;2022-07-04T08:26:33;39.10;50.70
10875;DHT22;5490;52.200;8.786;2022-07-04T08:29:00;39.80;50.30
10875;DHT22;5490;52.200;8.786;2022-07-04T08:31:27;40.40;48.90
10875;DHT22;5490;52.200;8.786;2022-07-04T08:33:54;41.10;48.30
10875;DHT22;5490;52.200;8.786;2022-07-04T08:36:21;41.40;46.80
10875;DHT22;5490;52.200;8.786;2022-07-04T08:38:48;40.60;45.50
10875;DHT22;5490;52.200;8.786;2022-07-04T08:41:17;40.20;47.10
10875;DHT22;5490;52.200;8.786;2022-07-04T08:43:45;39.90;47.60
10875;DHT22;5490;52.200;8.786;2022-07-04T08:46:15;39.60;46.50
10875;DHT22;5490;52.200;8.786;2022-07-04T08:48:50;39.30;46.60
10875;DHT22;5490;52.200;8.786;2022-07-04T08:51:29;39.00;46.20
10875;DHT22;5490;52.200;8.786;2022-07-04T08:54:01;39.10;47.10
10875;DHT22;5490;52.200;8.786;2022-07-04T08:56:49;39.20;46.50
10875;DHT22;5490;52.200;8.786;2022-07-04T08:59:34;39.20;47.40
10875;DHT22;5490;52.200;8.786;2022-07-04T09:02:16;39.30;47.30
10875;DHT22;5490;52.200;8.786;2022-07-04T09:05:09;39.30;46.40
10875;DHT22;5490;52.200;8.786;2022-07-04T09:07:37;39.20;46.30
10875;DHT22;5490;52.200;8.786;2022-07-04T09:10:05;39.40;47.00
10875;DHT22;5490;52.200;8.786;2022-07-04T09:12:52;39.60;46.10
10875;DHT22;5490;52.200;8.786;2022-07-04T09:15:21;38.40;45.40
10875;DHT22;5490;52.200;8.786;2022-07-04T09:17:48;38.60;46.40
10875;DHT22;5490;52.200;8.786;2022-07-04T09:20:16;38.80;46.90
10875;DHT22;5490;52.200;8.786;2022-07-04T09:22:46;38.30;46.30
10875;DHT22;5490;52.200;8.786;2022-07-04T09:44:15;38.70;48.80
10875;DHT22;5490;52.200;8.786;2022-07-04T09:46:42;38.60;48.80
10875;DHT22;5490;52.200;8.786;2022-07-04T09:49:14;38.10;47.20
10875;DHT22;5490;52.200;8.786;2022-07-04T09:51:43;37.40;46.80
10875;DHT22;5490;52.200;8.786;2022-07-04T09:54:21;36.60;49.10
10875;DHT22;5490;52.200;8.786;2022-07-04T09:56:54;36.40;50.60
10875;DHT22;5490;52.200;8.786;2022-07-04T09:59:23;36.20;49.80
10875;DHT22;5490;52.200;8.786;2022-07-04T10:01:51;35.80;51.30
10875;DHT22;5490;52.200;8.786;2022-07-04T10:04:18;35.20;49.70
10875;DHT22;5490;52.200;8.786;2022-07-04T10:06:47;34.80;50.90
10875;DHT22;5490;52.200;8.786;2022-07-04T10:09:15;34.40;50.30
10875;DHT22;5490;52.200;8.786;2022-07-04T10:11:50;34.00;50.60
10875;DHT22;5490;52.200;8.786;2022-07-04T10:14:17;33.20;50.90
10875;DHT22;5490;52.200;8.786;2022-07-04T10:16:45;32.80;52.80
10875;DHT22;5490;52.200;8.786;2022-07-04T10:19:12;32.40;52.90
10875;DHT22;5490;52.200;8.786;2022-07-04T10:21:39;32.30;54.10
10875;DHT22;5490;52.200;8.786;2022-07-04T10:24:06;31.90;54.50
10875;DHT22;5490;52.200;8.786;2022-07-04T10:26:38;32.10;56.10
10875;DHT22;5490;52.200;8.786;2022-07-04T10:29:05;32.40;55.70
10875;DHT22;5490;52.200;8.786;2022-07-04T10:31:40;32.50;55.70
10875;DHT22;5490;52.200;8.786;2022-07-04T10:34:31;32.40;55.20
10875;DHT22;5490;52.200;8.786;2022-07-04T10:37:05;32.50;56.70
10875;DHT22;5490;52.200;8.786;2022-07-04T10:39:33;32.70;55.90
10875;DHT22;5490;52.200;8.786;2022-07-04T10:42:04;32.60;55.40
10875;DHT22;5490;52.200;8.786;2022-07-04T10:44:37;32.50;55.60
10875;DHT22;5490;52.200;8.786;2022-07-04T10:47:05;32.30;56.80
10875;DHT22;5490;52.200;8.786;2022-07-04T10:49:34;32.20;55.00
10875;DHT22;5490;52.200;8.786;2022-07-04T10:52:09;32.00;54.80
10875;DHT22;5490;52.200;8.786;2022-07-04T10:54:39;31.60;55.00
10875;DHT22;5490;52.200;8.786;2022-07-04T10:57:11;31.20;56.00
10875;DHT22;5490;52.200;8.786;2022-07-04T10:59:41;30.70;55.80
10875;DHT22;5490;52.200;8.786;2022-07-04T11:02:27;30.30;56.40
10875;DHT22;5490;52.200;8.786;2022-07-04T11:05:02;30.00;55.80
10875;DHT22;5490;52.200;8.786;2022-07-04T11:07:56;29.70;57.30
10875;DHT22;5490;52.200;8.786;2022-07-04T11:10:24;29.40;57.90
10875;DHT22;5490;52.200;8.786;2022-07-04T11:13:14;29.20;56.80
10875;DHT22;5490;52.200;8.786;2022-07-04T11:16:00;29.00;57.60
10875;DHT22;5490;52.200;8.786;2022-07-04T11:18:27;28.80;58.60
10875;DHT22;5490;52.200;8.786;2022-07-04T11:20:58;28.60;58.20
10875;DHT22;5490;52.200;8.786;2022-07-04T11:23:25;28.00;58.50
10875;DHT22;5490;52.200;8.786;2022-07-04T11:25:52;27.80;59.80
10875;DHT22;5490;52.200;8.786;2022-07-04T11:28:23;27.80;60.00
10875;DHT22;5490;52.200;8.786;2022-07-04T11:30:50;27.80;61.30
10875;DHT22;5490;52.200;8.786;2022-07-04T11:33:23;27.80;60.40
10875;DHT22;5490;52.200;8.786;2022-07-04T11:36:03;27.70;59.70
10875;DHT22;5490;52.200;8.786;2022-07-04T11:38:44;27.50;59.70
10875;DHT22;5490;52.200;8.786;2022-07-04T11:41:11;27.40;60.60
10875;DHT22;5490;52.200;8.786;2022-07-04T11:44:07;27.30;61.40
10875;DHT22;5490;52.200;8.786;2022-07-04T11:47:06;27.20;62.00
10875;DHT22;5490;52.200;8.786;2022-07-04T11:49:34;27.00;60.80
10875;DHT22;5490;52.200;8.786;2022-07-04T11:52:03;26.90;62.80
10875;DHT22;5490;52.200;8.786;2022-07-04T11:54:30;26.80;61.90
10875;DHT22;5490;52.200;8.786;2022-07-04T11:57:15;26.70;62.80
10875;DHT22;5490;52.200;8.786;2022-07-04T11:59:43;26.60;62.00
10875;DHT22;5490;52.200;8.786;2022-07-04T12:02:13;26.30;63.00
10875;DHT22;5490;52.200;8.786;2022-07-04T12:04:40;26.30;63.90
10875;DHT22;5490;52.200;8.786;2022-07-04T12:07:14;26.30;63.50
10875;DHT22;5490;52.200;8.786;2022-07-04T12:09:45;26.20;64.00
10875;DHT22;5490;52.200;8.786;2022-07-04T12:12:12;26.20;64.50
10875;DHT22;5490;52.200;8.786;2022-07-04T12:14:57;26.20;64.00
10875;DHT22;5490;52.200;8.786;2022-07-04T12:17:31;26.10;64.40
10875;DHT22;5490;52.200;8.786;2022-07-04T12:20:00;26.10;65.20
10875;DHT22;5490;52.200;8.786;2022-07-04T12:22:32;26.10;65.90
10875;DHT22;5490;52.200;8.786;2022-07-04T12:25:00;26.20;65.70
10875;DHT22;5490;52.200;8.786;2022-07-04T12:27:29;26.10;65.70
10875;DHT22;5490;52.200;8.786;2022-07-04T12:29:57;26.10;64.20
10875;DHT22;5490;52.200;8.786;2022-07-04T12:32:43;26.10;65.00
10875;DHT22;5490;52.200;8.786;2022-07-04T12:35:31;26.00;64.80
10875;DHT22;5490;52.200;8.786;2022-07-04T12:38:06;26.00;64.80
10875;DHT22;5490;52.200;8.786;2022-07-04T12:40:35;25.90;64.80
10875;DHT22;5490;52.200;8.786;2022-07-04T12:43:03;25.90;64.00
10875;DHT22;5490;52.200;8.786;2022-07-04T12:45:44;25.80;64.40
10875;DHT22;5490;52.200;8.786;2022-07-04T12:48:16;25.70;66.20
10875;DHT22;5490;52.200;8.786;2022-07-04T12:50:44;25.70;65.80
10875;DHT22;5490;52.200;8.786;2022-07-04T12:53:12;25.60;65.70
10875;DHT22;5490;52.200;8.786;2022-07-04T12:55:41;25.60;66.10
10875;DHT22;5490;52.200;8.786;2022-07-04T12:58:09;25.60;66.40
10875;DHT22;5490;52.200;8.786;2022-07-04T13:00:42;25.50;64.40
10875;DHT22;5490;52.200;8.786;2022-07-04T13:03:23;25.40;64.30
10875;DHT22;5490;52.200;8.786;2022-07-04T13:05:50;25.30;64.90
10875;DHT22;5490;52.200;8.786;2022-07-04T13:08:19;25.20;64.40
10875;DHT22;5490;52.200;8.786;2022-07-04T13:10:46;25.20;66.00
10875;DHT22;5490;52.200;8.786;2022-07-04T13:13:16;25.20;67.00
10875;DHT22;5490;52.200;8.786;2022-07-04T13:15:43;25.10;65.90
10875;DHT22;5490;52.200;8.786;2022-07-04T13:18:16;25.10;67.40
10875;DHT22;5490;52.200;8.786;2022-07-04T13:20:43;25.10;65.10
10875;DHT22;5490;52.200;8.786;2022-07-04T13:23:38;25.10;67.10
10875;DHT22;5490;52.200;8.786;2022-07-04T13:26:10;25.00;64.40
10875;DHT22;5490;52.200;8.786;2022-07-04T13:28:49;24.90;63.40
10875;DHT22;5490;52.200;8.786;2022-07-04T13:31:16;24.90;65.00
10875;DHT22;5490;52.200;8.786;2022-07-04T13:33:49;24.90;66.50
10875;DHT22;5490;52.200;8.786;2022-07-04T13:36:19;24.80;64.90
10875;DHT22;5490;52.200;8.786;2022-07-04T13:38:47;24.80;64.40
10875;DHT22;5490;52.200;8.786;2022-07-04T13:41:25;24.70;65.60
10875;DHT22;5490;52.200;8.786;2022-07-04T13:43:53;24.70;67.20
10875;DHT22;5490;52.200;8.786;2022-07-04T13:46:26;24.70;67.60
10875;DHT22;5490;52.200;8.786;2022-07-04T13:48:59;24.70;67.90
10875;DHT22;5490;52.200;8.786;2022-07-04T13:51:27;24.80;68.00
10875;DHT22;5490;52.200;8.786;2022-07-04T13:53:58;24.80;67.80
10875;DHT22;5490;52.200;8.786;2022-07-04T13:56:31;24.80;67.80
10875;DHT22;5490;52.200;8.786;2022-07-04T13:59:10;24.80;67.30
10875;DHT22;5490;52.200;8.786;2022-07-04T14:02:02;24.80;67.20
10875;DHT22;5490;52.200;8.786;2022-07-04T14:04:31;24.80;67.00
10875;DHT22;5490;52.200;8.786;2022-07-04T14:07:08;24.80;65.90
10875;DHT22;5490;52.200;8.786;2022-07-04T14:09:39;24.80;66.50
10875;DHT22;5490;52.200;8.786;2022-07-04T14:12:14;24.80;66.70
10875;DHT22;5490;52.200;8.786;2022-07-04T14:14:43;24.80;66.60
10875;DHT22;5490;52.200;8.786;2022-07-04T14:17:19;24.80;67.40
10875;DHT22;5490;52.200;8.786;2022-07-04T14:19:48;25.00;66.90
10875;DHT22;5490;52.200;8.786;2022-07-04T14:22:16;25.00;66.00
10875;DHT22;5490;52.200;8.786;2022-07-04T14:24:44;25.00;67.80
10875;DHT22;5490;52.200;8.786;2022-07-04T14:27:11;25.00;66.30
10875;DHT22;5490;52.200;8.786;2022-07-04T14:29:37;25.00;69.30
10875;DHT22;5490;52.200;8.786;2022-07-04T14:32:07;25.00;67.70
10875;DHT22;5490;52.200;8.786;2022-07-04T14:34:34;25.00;66.90
10875;DHT22;5490;52.200;8.786;2022-07-04T14:37:00;25.00;67.10
10875;DHT22;5490;52.200;8.786;2022-07-04T14:39:27;24.90;67.70
10875;DHT22;5490;52.200;8.786;2022-07-04T14:41:59;24.90;67.60
10875;DHT22;5490;52.200;8.786;2022-07-04T14:44:30;24.80;67.60
10875;DHT22;5490;52.200;8.786;2022-07-04T14:47:12;25.00;66.20
10875;DHT22;5490;52.200;8.786;2022-07-04T14:49:41;25.00;68.40
10875;DHT22;5490;52.200;8.786;2022-07-04T14:52:16;25.10;67.20
10875;DHT22;5490;52.200;8.786;2022-07-04T14:54:46;25.10;66.90
10875;DHT22;5490;52.200;8.786;2022-07-04T14:57:20;25.10;67.60
10875;DHT22;5490;52.200;8.786;2022-07-04T14:59:56;25.10;67.00
10875;DHT22;5490;52.200;8.786;2022-07-04T15:02:31;25.10;66.90
10875;DHT22;5490;52.200;8.786;2022-07-04T15:05:01;25.10;67.00
10875;DHT22;5490;52.200;8.786;2022-07-04T15:07:34;25.10;67.30
10875;DHT22;5490;52.200;8.786;2022-07-04T15:10:02;25.00;68.10
10875;DHT22;5490;52.200;8.786;2022-07-04T15:12:37;25.00;67.60
10875;DHT22;5490;52.200;8.786;2022-07-04T15:15:10;25.00;66.70
10875;DHT22;5490;52.200;8.786;2022-07-04T15:17:38;25.00;66.30
10875;DHT22;5490;52.200;8.786;2022-07-04T15:20:06;25.00;66.90
10875;DHT22;5490;52.200;8.786;2022-07-04T15:22:52;25.10;68.80
10875;DHT22;5490;52.200;8.786;2022-07-04T15:25:54;25.20;67.80
10875;DHT22;5490;52.200;8.786;2022-07-04T15:28:22;25.20;67.90
10875;DHT22;5490;52.200;8.786;2022-07-04T15:30:49;25.10;67.60
10875;DHT22;5490;52.200;8.786;2022-07-04T15:33:16;25.10;66.60
10875;DHT22;5490;52.200;8.786;2022-07-04T15:35:43;25.10;66.50
10875;DHT22;5490;52.200;8.786;2022-07-04T15:38:11;25.10;69.70
10875;DHT22;5490;52.200;8.786;2022-07-04T15:40:41;25.00;67.70
10875;DHT22;5490;52.200;8.786;2022-07-04T15:43:16;25.00;69.60
10875;DHT22;5490;52.200;8.786;2022-07-04T15:45:46;25.00;70.20
10875;DHT22;5490;52.200;8.786;2022-07-04T15:48:14;25.00;68.10
10875;DHT22;5490;52.200;8.786;2022-07-04T15:50:41;24.90;68.90
10875;DHT22;5490;52.200;8.786;2022-07-04T15:53:08;24.90;68.60
10875;DHT22;5490;52.200;8.786;2022-07-04T15:55:35;24.90;69.80
10875;DHT22;5490;52.200;8.786;2022-07-04T15:58:02;24.90;70.90
10875;DHT22;5490;52.200;8.786;2022-07-04T16:00:29;24.90;70.70
10875;DHT22;5490;52.200;8.786;2022-07-04T16:02:58;25.00;70.00
10875;DHT22;5490;52.200;8.786;2022-07-04T16:05:24;25.00;70.10
10875;DHT22;5490;52.200;8.786;2022-07-04T16:07:51;25.00;69.70
10875;DHT22;5490;52.200;8.786;2022-07-04T16:10:18;25.00;70.60
10875;DHT22;5490;52.200;8.786;2022-07-04T16:12:45;25.00;70.90
10875;DHT22;5490;52.200;8.786;2022-07-04T16:15:12;25.00;70.30
10875;DHT22;5490;52.200;8.786;2022-07-04T16:17:38;25.00;70.60
10875;DHT22;5490;52.200;8.786;2022-07-04T16:20:08;25.00;71.00
10875;DHT22;5490;52.200;8.786;2022-07-04T16:22:35;24.90;70.20
10875;DHT22;5490;52.200;8.786;2022-07-04T16:25:03;24.90;70.70
10875;DHT22;5490;52.200;8.786;2022-07-04T16:27:30;24.70;68.80
10875;DHT22;5490;52.200;8.786;2022-07-04T16:29:56;24.60;69.60
10875;DHT22;5490;52.200;8.786;2022-07-04T16:32:23;24.60;70.00
10875;DHT22;5490;52.200;8.786;2022-07-04T16:34:53;24.60;71.70
10875;DHT22;5490;52.200;8.786;2022-07-04T16:37:22;24.60;71.30
10875;DHT22;5490;52.200;8.786;2022-07-04T16:39:53;24.60;72.80
10875;DHT22;5490;52.200;8.786;2022-07-04T16:42:27;24.50;73.30
10875;DHT22;5490;52.200;8.786;2022-07-04T16:45:04;24.50;73.80
10875;DHT22;5490;52.200;8.786;2022-07-04T16:47:59;24.50;73.80
10875;DHT22;5490;52.200;8.786;2022-07-04T16:50:33;24.50;73.40
10875;DHT22;5490;52.200;8.786;2022-07-04T16:53:04;24.60;73.50
10875;DHT22;5490;52.200;8.786;2022-07-04T16:55:31;24.70;73.90
10875;DHT22;5490;52.200;8.786;2022-07-04T16:58:00;24.60;71.70
10875;DHT22;5490;52.200;8.786;2022-07-04T17:00:32;24.50;72.90
10875;DHT22;5490;52.200;8.786;2022-07-04T17:03:06;24.40;74.00
10875;DHT22;5490;52.200;8.786;2022-07-04T17:06:10;24.30;73.90
10875;DHT22;5490;52.200;8.786;2022-07-04T17:08:41;24.30;73.30
10875;DHT22;5490;52.200;8.786;2022-07-04T17:11:14;24.20;74.30
10875;DHT22;5490;52.200;8.786;2022-07-04T17:13:43;24.10;74.10
10875;DHT22;5490;52.200;8.786;2022-07-04T17:16:10;24.10;73.30
10875;DHT22;5490;52.200;8.786;2022-07-04T17:18:38;24.00;75.70
10875;DHT22;5490;52.200;8.786;2022-07-04T17:21:06;24.00;74.30
10875;DHT22;5490;52.200;8.786;2022-07-04T17:23:52;24.00;75.40
10875;DHT22;5490;52.200;8.786;2022-07-04T17:26:19;24.00;74.80
10875;DHT22;5490;52.200;8.786;2022-07-04T17:28:48;23.90;76.00
10875;DHT22;5490;52.200;8.786;2022-07-04T17:31:15;24.00;75.50
10875;DHT22;5490;52.200;8.786;2022-07-04T17:33:42;24.00;76.50
10875;DHT22;5490;52.200;8.786;2022-07-04T17:36:10;23.90;75.70
10875;DHT22;5490;52.200;8.786;2022-07-04T17:38:37;23.80;74.20
10875;DHT22;5490;52.200;8.786;2022-07-04T17:41:05;23.90;74.40
10875;DHT22;5490;52.200;8.786;2022-07-04T17:43:49;23.80;76.30